createdAt,value
2022-08-22T00:00:56.603Z,2.47
2022-08-22T00:03:02.619Z,7.93
2022-08-22T00:03:56.121Z,5.60
2022-08-22T00:06:40.362Z,3.25
2022-08-22T00:09:35.746Z,5.40
2022-08-22T00:12:34.868Z,2.75
2022-08-22T00:15:42.181Z,6.60
2022-08-22T00:18:30.231Z,3.72
2022-08-22T00:21:19.471Z,2.70
2022-08-22T00:23:58.640Z,8.48
2022-08-22T00:26:45.477Z,2.80
2022-08-22T00:29:32.494Z,4.43
2022-08-22T00:32:20.815Z,2.70
2022-08-22T00:35:02.839Z,6.40
2022-08-22T00:38:18.750Z,4.75
2022-08-22T00:41:18.293Z,2.25
2022-08-22T00:44:16.600Z,3.80
2022-08-22T00:47:40.120Z,3.45
2022-08-22T00:50:43.740Z,2.85
2022-08-22T00:53:41.077Z,3.38
2022-08-22T00:56:37.098Z,7.75
2022-08-22T00:59:28.292Z,4.20
2022-08-22T01:02:19.097Z,4.40
2022-08-22T01:05:19.860Z,5.78
2022-08-22T01:08:19.244Z,5.50
2022-08-22T01:10:52.330Z,3.05
2022-08-22T01:13:44.311Z,2.38
2022-08-22T01:16:45.001Z,2.03
2022-08-22T01:19:51.104Z,5.85
2022-08-22T01:22:59.338Z,5.57
2022-08-22T01:26:09.201Z,3.58
2022-08-22T01:28:47.379Z,2.75
2022-08-22T01:31:56.441Z,4.15
2022-08-22T01:35:03.948Z,4.82
2022-08-22T01:38:10.506Z,3.40
2022-08-22T01:40:53.785Z,2.65
2022-08-22T01:43:51.312Z,3.28
2022-08-22T01:46:37.458Z,4.65
2022-08-22T01:49:22.582Z,5.07
2022-08-22T01:52:29.536Z,5.07
2022-08-22T01:55:39.094Z,8.38
2022-08-22T01:58:22.001Z,5.07
2022-08-22T02:01:09.515Z,2.45
2022-08-22T02:04:03.294Z,3.85
2022-08-22T02:07:02.732Z,5.65
2022-08-22T02:10:14.091Z,2.60
2022-08-22T02:12:58.767Z,3.78
2022-08-22T02:15:49.910Z,3.78
2022-08-22T02:18:31.421Z,4.75
2022-08-22T02:21:13.577Z,4.05
2022-08-22T02:23:57.139Z,4.22
2022-08-22T02:26:50.486Z,5.55
2022-08-22T02:29:43.137Z,2.83
2022-08-22T02:32:39.365Z,6.80
2022-08-22T02:35:42.968Z,6.38
2022-08-22T02:38:27.896Z,3.83
2022-08-22T02:41:16.592Z,9.18
2022-08-22T02:44:01.924Z,5.43
2022-08-22T02:47:03.413Z,3.88
2022-08-22T02:49:44.511Z,6.10
2022-08-22T02:52:29.305Z,3.47
2022-08-22T02:55:11.336Z,3.70
2022-08-22T02:58:05.591Z,3.60
2022-08-22T03:00:49.796Z,2.97
2022-08-22T03:03:29.891Z,6.07
2022-08-22T03:06:07.059Z,5.63
2022-08-22T03:09:01.083Z,6.03
2022-08-22T03:11:38.992Z,5.53
2022-08-22T03:14:34.102Z,2.75
2022-08-22T03:17:24.952Z,3.90
2022-08-22T03:20:44.723Z,7.38
2022-08-22T03:24:02.848Z,6.73
2022-08-22T03:27:04.512Z,8.13
2022-08-22T03:29:54.285Z,6.28
2022-08-22T03:33:12.414Z,5.22
2022-08-22T03:36:12.355Z,6.38
2022-08-22T03:39:22.061Z,4.28
2022-08-22T03:42:30.646Z,6.70
2022-08-22T03:45:27.601Z,4.30
2022-08-22T03:48:38.836Z,8.98
2022-08-22T03:51:59.890Z,1.85
2022-08-22T03:55:04.695Z,5.40
2022-08-22T03:58:27.701Z,6.03
2022-08-22T04:01:42.145Z,3.70
2022-08-22T04:04:42.195Z,2.78
2022-08-22T04:07:35.964Z,2.58
2022-08-22T04:10:20.170Z,2.42
2022-08-22T04:12:55.447Z,3.10
2022-08-22T04:15:51.075Z,4.18
2022-08-22T04:18:57.404Z,4.75
2022-08-22T04:21:53.551Z,3.10
2022-08-22T04:24:43.222Z,5.28
2022-08-22T04:27:51.075Z,7.68
2022-08-22T04:30:50.354Z,7.65
2022-08-22T04:33:34.894Z,4.45
2022-08-22T04:36:26.609Z,6.88
2022-08-22T04:39:11.217Z,3.45
2022-08-22T04:42:00.721Z,6.15
2022-08-22T04:45:05.416Z,7.07
2022-08-22T04:47:54.052Z,3.53
2022-08-22T04:50:36.102Z,5.38
2022-08-22T04:53:23.557Z,8.60
2022-08-22T04:56:25.619Z,6.90
2022-08-22T04:59:04.899Z,5.75
2022-08-22T05:01:53.934Z,4.13
2022-08-22T05:04:32.288Z,6.82
2022-08-22T05:07:13.720Z,6.95
2022-08-22T05:09:51.752Z,4.05
2022-08-22T05:12:32.222Z,6.88
2022-08-22T05:15:22.873Z,4.17
2022-08-22T05:17:59.690Z,6.00
2022-08-22T05:20:33.108Z,3.03
2022-08-22T05:23:27.662Z,6.75
2022-08-22T05:26:03.284Z,5.00
2022-08-22T05:28:52.547Z,9.88
2022-08-22T05:31:32.020Z,2.75
2022-08-22T05:34:18.186Z,2.92
2022-08-22T05:37:14.539Z,4.45
2022-08-22T05:39:51.492Z,5.22
2022-08-22T05:42:30.359Z,7.03
2022-08-22T05:45:08.558Z,3.67
2022-08-22T05:48:22.981Z,3.58
2022-08-22T05:51:01.057Z,5.93
2022-08-22T05:53:41.720Z,7.78
2022-08-22T05:56:39.119Z,2.42
2022-08-22T05:59:25.114Z,9.00
2022-08-22T06:02:10.231Z,6.38
2022-08-22T06:05:01.233Z,3.33
2022-08-22T06:07:45.020Z,6.28
2022-08-22T06:10:35.486Z,10.57
2022-08-22T06:13:12.152Z,5.05
2022-08-22T06:16:00.860Z,5.25
2022-08-22T06:18:34.668Z,2.50
2022-08-22T06:21:39.361Z,7.22
2022-08-22T06:24:21.481Z,4.20
2022-08-22T06:26:59.261Z,4.25
2022-08-22T06:29:45.855Z,6.35
2022-08-22T06:32:58.580Z,4.57
2022-08-22T06:35:56.926Z,4.70
2022-08-22T06:38:35.074Z,5.65
2022-08-22T06:41:08.974Z,3.40
2022-08-22T06:43:44.021Z,3.75
2022-08-22T06:46:17.611Z,2.70
2022-08-22T06:48:51.532Z,15.70
2022-08-22T06:51:26.849Z,11.13
2022-08-22T06:54:03.880Z,7.80
2022-08-22T06:56:42.873Z,7.45
2022-08-22T06:59:30.308Z,4.90
2022-08-22T07:02:05.032Z,6.30
2022-08-22T07:04:37.888Z,2.88
2022-08-22T07:07:10.641Z,4.78
2022-08-22T07:09:43.370Z,8.90
2022-08-22T07:12:22.096Z,7.60
2022-08-22T07:14:59.342Z,4.85
2022-08-22T07:17:33.051Z,5.13
2022-08-22T07:20:24.482Z,4.50
2022-08-22T07:23:05.472Z,27.52
2022-08-22T07:26:16.749Z,3.38
2022-08-22T07:28:58.517Z,6.55
2022-08-22T07:32:03.414Z,3.83
2022-08-22T07:35:30.589Z,3.10
2022-08-22T07:38:43.158Z,2.90
2022-08-22T07:41:23.258Z,4.20
2022-08-22T07:44:06.283Z,2.90
2022-08-22T07:46:47.760Z,7.80
2022-08-22T07:49:29.627Z,6.35
2022-08-22T07:52:09.993Z,5.20
2022-08-22T07:54:58.180Z,2.15
2022-08-22T07:57:35.729Z,3.15
2022-08-22T08:00:16.294Z,2.55
2022-08-22T08:02:54.684Z,3.17
2022-08-22T08:05:31.072Z,1.90
2022-08-22T08:08:34.687Z,4.05
2022-08-22T08:11:10.809Z,1.70
2022-08-22T08:13:49.961Z,3.40
2022-08-22T08:16:30.742Z,5.18
2022-08-22T08:19:03.628Z,2.65
2022-08-22T08:21:49.639Z,3.85
2022-08-22T08:24:28.585Z,2.70
2022-08-22T08:27:36.335Z,2.70
2022-08-22T08:30:19.707Z,2.00
2022-08-22T08:33:25.717Z,2.85
2022-08-22T08:36:02.617Z,2.88
2022-08-22T08:38:59.175Z,2.65
2022-08-22T08:41:47.723Z,2.88
2022-08-22T08:44:38.842Z,1.38
2022-08-22T08:47:23.222Z,2.00
2022-08-22T08:49:58.562Z,5.00
2022-08-22T08:52:41.466Z,4.55
2022-08-22T08:55:32.344Z,2.35
2022-08-22T08:58:11.197Z,4.65
2022-08-22T09:01:03.466Z,4.07
2022-08-22T09:04:17.141Z,6.88
2022-08-22T09:07:21.983Z,5.80
2022-08-22T09:10:13.203Z,2.42
2022-08-22T09:13:12.370Z,4.88
2022-08-22T09:16:05.277Z,4.53
2022-08-22T09:21:42.703Z,3.53
2022-08-22T09:24:37.081Z,3.58
2022-08-22T09:27:21.097Z,4.10
2022-08-22T09:30:06.096Z,2.80
2022-08-22T09:33:04.265Z,6.47
2022-08-22T09:35:55.186Z,2.70
2022-08-22T09:38:53.925Z,2.95
2022-08-22T09:41:45.397Z,2.83
2022-08-22T09:44:39.649Z,3.75
2022-08-22T09:47:25.024Z,5.30
2022-08-22T09:50:25.383Z,2.95
2022-08-22T09:53:43.980Z,1.70
2022-08-22T09:56:26.741Z,1.80
2022-08-22T09:59:20.258Z,2.83
2022-08-22T10:02:15.795Z,2.20
2022-08-22T10:04:48.375Z,4.78
2022-08-22T10:07:41.137Z,1.25
2022-08-22T10:13:10.369Z,3.55
2022-08-22T10:16:12.733Z,5.55
2022-08-22T10:19:00.522Z,2.20
2022-08-22T10:22:10.710Z,3.13
2022-08-22T10:25:18.501Z,4.68
2022-08-22T10:28:04.218Z,2.63
2022-08-22T10:30:43.105Z,2.63
2022-08-22T10:33:29.189Z,5.88
2022-08-22T10:36:13.268Z,2.35
2022-08-22T10:38:58.204Z,4.30
2022-08-22T10:41:34.342Z,5.30
2022-08-22T10:44:18.223Z,5.07
2022-08-22T10:46:57.273Z,5.28
2022-08-22T10:49:34.708Z,2.45
2022-08-22T10:52:32.507Z,3.80
2022-08-22T10:55:17.646Z,3.63
2022-08-22T10:58:16.201Z,5.93
2022-08-22T11:01:37.515Z,4.10
2022-08-22T11:04:28.186Z,5.15
2022-08-22T11:07:21.370Z,4.05
2022-08-22T11:10:03.629Z,5.07
2022-08-22T11:12:44.493Z,4.47
2022-08-22T11:15:26.226Z,7.60
2022-08-22T11:18:15.488Z,2.30
2022-08-22T11:21:09.314Z,3.80
2022-08-22T11:23:57.273Z,2.17
2022-08-22T11:26:38.291Z,2.95
2022-08-22T11:29:35.016Z,3.30
2022-08-22T11:32:25.753Z,6.63
2022-08-22T11:35:22.147Z,8.70
2022-08-22T11:38:32.834Z,4.30
2022-08-22T11:41:10.634Z,2.10
2022-08-22T11:44:17.374Z,4.50
2022-08-22T11:46:51.612Z,3.28
2022-08-22T11:49:41.836Z,3.83
2022-08-22T11:52:20.194Z,5.93
2022-08-22T11:55:16.870Z,3.08
2022-08-22T11:57:52.319Z,6.53
2022-08-22T12:00:33.898Z,2.58
2022-08-22T12:03:39.380Z,5.43
2022-08-22T12:06:49.708Z,4.22
2022-08-22T12:09:29.776Z,11.55
2022-08-22T12:12:28.584Z,9.13
2022-08-22T12:15:13.234Z,7.82
2022-08-22T12:18:04.977Z,4.22
2022-08-22T12:21:03.810Z,2.78
2022-08-22T12:23:54.474Z,7.05
2022-08-22T12:26:58.922Z,3.28
2022-08-22T12:30:13.899Z,5.78
2022-08-22T12:33:23.109Z,14.02
2022-08-22T12:36:12.596Z,21.73
2022-08-22T12:39:09.472Z,15.57
2022-08-22T12:42:10.860Z,16.85
2022-08-22T12:45:01.352Z,9.77
2022-08-22T12:47:42.254Z,3.67
2022-08-22T12:50:46.239Z,8.30
2022-08-22T12:53:58.861Z,18.85
2022-08-22T12:56:56.133Z,13.20
2022-08-22T13:00:02.205Z,0.20
2022-08-22T13:02:39.660Z,0.47
2022-08-22T13:05:19.856Z,0.30
2022-08-22T13:08:04.409Z,2.08
2022-08-22T13:10:50.650Z,0.20
2022-08-22T13:13:56.629Z,0.68
2022-08-22T13:16:49.079Z,0.15
2022-08-22T13:19:27.924Z,0.40
2022-08-22T13:22:02.758Z,0.50
2022-08-22T13:24:51.708Z,0.85
2022-08-22T13:27:51.085Z,0.40
2022-08-22T13:30:31.460Z,1.10
2022-08-22T13:33:11.445Z,0.25
2022-08-22T13:35:53.864Z,1.10
2022-08-22T13:38:46.525Z,0.38
2022-08-22T13:41:32.526Z,0.30
2022-08-22T13:44:08.173Z,0.30
2022-08-22T13:47:10.922Z,0.73
2022-08-22T13:52:29.543Z,0.40
2022-08-22T13:55:23.930Z,0.30
2022-08-22T13:58:30.545Z,0.20
2022-08-22T14:01:07.798Z,0.63
2022-08-22T14:03:49.878Z,0.32
2022-08-22T14:06:38.087Z,0.28
2022-08-22T14:09:31.912Z,0.20
2022-08-22T14:12:28.715Z,0.30
2022-08-22T14:15:09.546Z,0.30
2022-08-22T14:17:44.947Z,0.30
2022-08-22T14:20:32.307Z,0.22
2022-08-22T14:23:23.996Z,0.20
2022-08-22T14:28:35.953Z,0.20
2022-08-22T14:31:14.578Z,0.10
2022-08-22T14:33:49.131Z,0.20
2022-08-22T14:36:27.417Z,0.20
2022-08-22T14:39:12.045Z,0.20
2022-08-22T14:41:52.333Z,0.20
2022-08-22T14:44:37.785Z,0.20
2022-08-22T14:47:51.044Z,0.20
2022-08-22T14:50:45.939Z,0.22
2022-08-22T14:53:20.062Z,0.10
2022-08-22T14:56:15.886Z,0.40
2022-08-22T14:58:53.316Z,0.28
2022-08-22T15:01:29.940Z,0.32
2022-08-22T15:04:07.162Z,0.22
2022-08-22T15:06:58.966Z,0.20
2022-08-22T15:09:35.545Z,0.25
2022-08-22T15:12:36.211Z,0.20
2022-08-22T15:15:26.902Z,0.20
2022-08-22T15:17:59.694Z,0.20
2022-08-22T15:23:23.595Z,0.20
2022-08-22T15:26:27.190Z,0.20
2022-08-22T15:29:31.626Z,0.30
2022-08-22T15:32:04.731Z,0.20
2022-08-22T15:34:43.939Z,0.10
2022-08-22T15:37:19.791Z,0.10
2022-08-22T15:40:11.903Z,0.13
2022-08-22T15:42:50.300Z,0.32
2022-08-22T15:45:38.641Z,0.15
2022-08-22T15:48:33.896Z,0.25
2022-08-22T15:51:13.617Z,0.10
2022-08-22T15:53:46.267Z,0.10
2022-08-22T15:59:53.574Z,0.20
2022-08-22T16:02:42.215Z,0.25
2022-08-22T16:05:14.720Z,0.20
2022-08-22T16:08:02.863Z,0.40
2022-08-22T16:11:04.052Z,0.20
2022-08-22T16:13:39.649Z,0.10
2022-08-22T16:16:27.662Z,0.20
2022-08-22T16:19:00.107Z,0.10
2022-08-22T16:21:52.615Z,0.25
2022-08-22T16:24:25.324Z,0.10
2022-08-22T16:26:58.350Z,0.10
2022-08-22T16:29:41.438Z,0.20
2022-08-22T16:32:25.129Z,0.15
2022-08-22T16:34:57.930Z,0.20
2022-08-22T16:40:18.814Z,0.38
2022-08-22T16:43:09.869Z,0.10
2022-08-22T16:45:48.846Z,0.10
2022-08-22T16:48:37.761Z,0.20
2022-08-22T16:51:14.591Z,0.10
2022-08-22T16:54:08.916Z,0.20
2022-08-22T16:57:27.624Z,0.10
2022-08-22T17:00:22.794Z,0.13
2022-08-22T17:03:03.491Z,0.10
2022-08-22T17:05:51.005Z,0.10
2022-08-22T17:08:42.967Z,0.10
2022-08-22T17:11:57.405Z,0.13
2022-08-22T17:14:57.657Z,0.20
2022-08-22T17:18:14.190Z,0.10
2022-08-22T17:21:12.903Z,0.20
2022-08-22T17:24:33.696Z,0.17
2022-08-22T17:27:30.683Z,0.10
2022-08-22T17:30:14.752Z,0.10
2022-08-22T17:33:12.965Z,0.17
2022-08-22T17:36:13.226Z,0.20
2022-08-22T17:39:17.931Z,0.20
2022-08-22T17:41:53.018Z,0.10
2022-08-22T17:44:43.983Z,0.10
2022-08-22T17:47:25.651Z,0.10
2022-08-22T17:50:06.350Z,0.10
2022-08-22T17:52:55.988Z,0.10
2022-08-22T17:55:55.268Z,0.20
2022-08-22T17:58:44.005Z,0.10
2022-08-22T18:01:40.217Z,0.15
2022-08-22T18:04:27.575Z,0.10
2022-08-22T18:07:15.389Z,0.20
2022-08-22T18:10:26.234Z,0.32
2022-08-22T18:13:34.395Z,0.20
2022-08-22T18:16:29.390Z,0.10
2022-08-22T18:19:08.606Z,0.30
2022-08-22T18:21:55.049Z,0.20
2022-08-22T18:24:46.966Z,0.88
2022-08-22T18:27:40.198Z,0.20
2022-08-22T18:30:18.255Z,0.20
2022-08-22T18:33:12.028Z,0.10
2022-08-22T18:36:10.396Z,0.10
2022-08-22T18:39:17.220Z,0.10
2022-08-22T18:41:58.708Z,0.20
2022-08-22T18:44:36.496Z,0.10
2022-08-22T18:47:17.080Z,0.20
2022-08-22T18:49:54.524Z,0.30
2022-08-22T18:52:27.084Z,0.25
2022-08-22T18:55:11.626Z,0.10
2022-08-22T18:58:06.608Z,0.10
2022-08-22T19:01:06.497Z,0.10
2022-08-22T19:03:51.985Z,0.20
2022-08-22T19:06:38.301Z,0.20
2022-08-22T19:09:26.116Z,0.10
2022-08-22T19:12:16.093Z,0.10
2022-08-22T19:15:10.148Z,0.10
2022-08-22T19:17:59.146Z,0.10
2022-08-22T19:21:11.493Z,0.10
2022-08-22T19:23:48.226Z,0.10
2022-08-22T19:26:39.379Z,0.10
2022-08-22T19:29:17.477Z,0.10
2022-08-22T19:31:54.840Z,0.00
2022-08-22T19:34:30.357Z,0.10
2022-08-22T19:37:32.435Z,0.10
2022-08-22T19:42:44.312Z,0.10
2022-08-22T19:45:29.287Z,0.20
2022-08-22T19:48:13.146Z,0.32
2022-08-22T19:50:46.666Z,0.20
2022-08-22T19:53:51.186Z,0.10
2022-08-22T19:56:51.313Z,0.10
2022-08-22T19:59:29.083Z,0.10
2022-08-22T20:02:19.874Z,0.10
2022-08-22T20:05:04.273Z,0.22
2022-08-22T20:08:05.679Z,0.10
2022-08-22T20:11:08.260Z,0.15
2022-08-22T20:13:41.202Z,0.17
2022-08-22T20:16:22.522Z,0.10
2022-08-22T20:19:19.359Z,0.10
2022-08-22T20:22:02.523Z,0.10
2022-08-22T20:24:56.028Z,0.10
2022-08-22T20:27:28.567Z,0.17
2022-08-22T20:30:07.930Z,0.20
2022-08-22T20:32:45.387Z,0.08
2022-08-22T20:35:24.477Z,0.20
2022-08-22T20:38:10.101Z,0.10
2022-08-22T20:41:11.395Z,0.10
2022-08-22T20:43:52.347Z,0.10
2022-08-22T20:46:47.202Z,0.10
2022-08-22T20:49:42.245Z,0.40
2022-08-22T20:52:31.857Z,0.52
2022-08-22T20:55:07.366Z,0.10
2022-08-22T20:57:53.548Z,0.10
2022-08-22T21:00:44.267Z,0.15
2022-08-22T21:03:44.848Z,0.20
2022-08-22T21:06:21.164Z,0.20
2022-08-22T21:09:39.265Z,0.43
2022-08-22T21:12:12.147Z,0.13
2022-08-22T21:14:48.301Z,0.15
2022-08-22T21:17:25.479Z,0.10
2022-08-22T21:20:15.032Z,0.03
2022-08-22T21:22:47.886Z,0.22
2022-08-22T21:25:20.636Z,0.22
2022-08-22T21:27:54.945Z,0.10
2022-08-22T21:30:30.288Z,0.10
2022-08-22T21:33:03.393Z,0.10
2022-08-22T21:35:35.992Z,0.10
2022-08-22T21:38:18.135Z,0.20
2022-08-22T21:40:50.851Z,0.10
2022-08-22T21:43:53.832Z,0.10
2022-08-22T21:46:29.138Z,0.10
2022-08-22T21:49:05.487Z,0.10
2022-08-22T21:51:43.965Z,0.10
2022-08-22T21:54:25.605Z,0.10
2022-08-22T21:57:19.418Z,0.10
2022-08-22T21:59:58.965Z,0.10
2022-08-22T22:02:37.490Z,0.10
2022-08-22T22:05:14.430Z,0.10
2022-08-22T22:07:48.210Z,0.20
2022-08-22T22:10:22.967Z,0.10
2022-08-22T22:12:59.079Z,0.20
2022-08-22T22:15:42.553Z,0.10
2022-08-22T22:18:18.411Z,0.00
2022-08-22T22:20:52.675Z,0.00
2022-08-22T22:23:26.557Z,0.10
2022-08-22T22:26:02.674Z,0.00
2022-08-22T22:28:42.069Z,0.17
2022-08-22T22:31:16.550Z,0.10
2022-08-22T22:33:49.048Z,0.10
2022-08-22T22:36:26.989Z,0.13
2022-08-22T22:39:00.953Z,0.10
2022-08-22T22:41:33.471Z,0.38
2022-08-22T22:44:06.178Z,0.65
2022-08-22T22:49:11.272Z,1.80
2022-08-22T22:51:43.883Z,0.93
2022-08-22T22:54:16.469Z,0.95
2022-08-22T22:56:49.737Z,2.22
2022-08-22T22:59:24.787Z,3.58
2022-08-22T23:02:12.876Z,3.35
2022-08-22T23:04:47.922Z,4.43
2022-08-22T23:07:21.701Z,4.40
2022-08-22T23:09:56.350Z,9.05
2022-08-22T23:12:31.977Z,3.85
2022-08-22T23:15:06.815Z,5.07
2022-08-22T23:17:39.520Z,4.10
2022-08-22T23:20:12.400Z,5.97
2022-08-22T23:22:46.261Z,11.32
2022-08-22T23:25:18.914Z,6.55
2022-08-22T23:27:52.266Z,5.20
2022-08-22T23:30:25.076Z,5.50
2022-08-22T23:32:57.729Z,5.05
2022-08-22T23:35:30.294Z,6.32
2022-08-22T23:38:02.945Z,4.22
2022-08-22T23:40:35.686Z,5.53
2022-08-22T23:45:40.843Z,4.10
2022-08-22T23:50:45.842Z,3.43
2022-08-22T23:53:18.516Z,4.82
2022-08-22T23:58:23.743Z,3.42
